createdAt,value
2018-06-04T00:00:41.317Z,0.00
2018-06-04T00:01:41.345Z,0.00
2018-06-04T00:02:41.358Z,0.00
2018-06-04T00:03:41.387Z,0.00
2018-06-04T00:04:41.411Z,0.00
2018-06-04T00:05:41.435Z,0.00
2018-06-04T00:06:41.449Z,0.00
2018-06-04T00:07:41.474Z,0.00
2018-06-04T00:08:41.501Z,0.00
2018-06-04T00:09:41.517Z,0.00
2018-06-04T00:10:41.540Z,0.00
2018-06-04T00:11:41.566Z,0.00
2018-06-04T00:12:41.595Z,0.00
2018-06-04T00:13:41.606Z,0.00
2018-06-04T00:14:41.632Z,0.00
2018-06-04T00:15:41.658Z,0.00
2018-06-04T00:16:41.684Z,0.00
2018-06-04T00:17:41.698Z,0.00
2018-06-04T00:18:41.723Z,0.00
2018-06-04T00:19:41.749Z,0.00
2018-06-04T00:20:41.775Z,0.00
2018-06-04T00:21:41.791Z,0.00
2018-06-04T00:22:41.816Z,0.00
2018-06-04T00:23:41.841Z,0.00
2018-06-04T00:24:41.866Z,0.00
2018-06-04T00:25:41.880Z,0.00
2018-06-04T00:26:41.905Z,0.00
2018-06-04T00:27:41.931Z,0.00
2018-06-04T00:28:41.945Z,0.00
2018-06-04T00:29:41.970Z,0.00
2018-06-04T00:30:41.995Z,0.00
2018-06-04T00:31:42.022Z,0.00
2018-06-04T00:32:42.036Z,0.00
2018-06-04T00:33:42.063Z,0.00
2018-06-04T00:34:42.087Z,0.00
2018-06-04T00:35:42.114Z,0.00
2018-06-04T00:36:42.143Z,0.00
2018-06-04T00:37:42.151Z,0.00
2018-06-04T00:38:42.177Z,0.00
2018-06-04T00:39:42.203Z,0.00
2018-06-04T00:40:42.220Z,0.00
2018-06-04T00:41:42.244Z,0.00
2018-06-04T00:42:42.270Z,0.00
2018-06-04T00:43:42.284Z,0.00
2018-06-04T00:44:42.308Z,0.00
2018-06-04T00:45:42.334Z,0.00
2018-06-04T00:46:42.360Z,0.00
2018-06-04T00:47:42.376Z,0.00
2018-06-04T00:48:42.400Z,0.00
2018-06-04T00:49:42.425Z,0.00
2018-06-04T00:50:42.453Z,0.00
2018-06-04T00:51:42.464Z,0.00
2018-06-04T00:52:42.490Z,0.00
2018-06-04T00:53:42.516Z,0.00
2018-06-04T00:54:42.535Z,0.00
2018-06-04T00:55:42.556Z,0.00
2018-06-04T00:56:42.594Z,0.00
2018-06-04T00:57:42.608Z,0.00
2018-06-04T00:58:42.621Z,0.00
2018-06-04T00:59:42.648Z,0.00
2018-06-04T01:00:42.673Z,0.00
2018-06-04T01:01:42.700Z,0.00
2018-06-04T01:02:42.713Z,0.00
2018-06-04T01:03:42.740Z,0.00
2018-06-04T01:04:42.766Z,0.00
2018-06-04T01:05:42.791Z,0.00
2018-06-04T01:06:42.804Z,0.00
2018-06-04T01:07:42.830Z,0.00
2018-06-04T01:08:42.855Z,0.00
2018-06-04T01:09:42.870Z,0.00
2018-06-04T01:10:42.896Z,0.00
2018-06-04T01:11:42.921Z,0.00
2018-06-04T01:12:42.949Z,0.00
2018-06-04T01:13:42.961Z,0.00
2018-06-04T01:14:42.987Z,0.00
2018-06-04T01:15:43.013Z,0.00
2018-06-04T01:16:43.028Z,0.00
2018-06-04T01:17:43.053Z,0.00
2018-06-04T01:18:43.079Z,0.00
2018-06-04T01:19:43.108Z,0.00
2018-06-04T01:20:43.117Z,0.00
2018-06-04T01:21:43.143Z,0.00
2018-06-04T01:22:43.169Z,0.00
2018-06-04T01:23:43.195Z,0.00
2018-06-04T01:24:43.209Z,0.00
2018-06-04T01:25:43.236Z,0.00
2018-06-04T01:26:43.263Z,0.00
2018-06-04T01:27:43.274Z,0.00
2018-06-04T01:28:43.299Z,0.00
2018-06-04T01:29:43.335Z,0.00
2018-06-04T01:30:43.351Z,0.00
2018-06-04T01:31:43.368Z,0.00
2018-06-04T01:32:43.392Z,0.00
2018-06-04T01:33:43.418Z,0.00
2018-06-04T01:34:43.430Z,0.00
2018-06-04T01:35:43.460Z,0.00
2018-06-04T01:36:43.486Z,0.00
2018-06-04T01:37:43.508Z,0.00
2018-06-04T01:38:43.523Z,0.00
2018-06-04T01:39:43.548Z,0.00
2018-06-04T01:40:43.574Z,0.00
2018-06-04T01:41:43.588Z,0.00
2018-06-04T01:42:43.615Z,0.00
2018-06-04T01:43:43.640Z,0.00
2018-06-04T01:44:43.664Z,0.00
2018-06-04T01:45:43.679Z,0.00
2018-06-04T01:46:43.706Z,0.00
2018-06-04T01:47:43.731Z,0.00
2018-06-04T01:48:43.756Z,0.00
2018-06-04T01:49:43.769Z,0.00
2018-06-04T01:50:43.797Z,0.00
2018-06-04T01:51:43.810Z,0.00
2018-06-04T01:52:43.835Z,0.00
2018-06-04T01:53:43.861Z,0.00
2018-06-04T01:54:43.888Z,0.00
2018-06-04T01:55:43.913Z,0.00
2018-06-04T01:56:43.926Z,0.00
2018-06-04T01:57:43.953Z,0.00
2018-06-04T01:58:43.966Z,0.00
2018-06-04T01:59:43.992Z,0.00
2018-06-04T02:00:44.019Z,0.00
2018-06-04T02:01:44.044Z,0.00
2018-06-04T02:02:44.057Z,0.00
2018-06-04T02:03:44.083Z,0.00
2018-06-04T02:04:44.109Z,0.00
2018-06-04T02:05:44.123Z,0.00
2018-06-04T02:06:44.149Z,0.00
2018-06-04T02:07:44.174Z,0.00
2018-06-04T02:08:44.201Z,0.00
2018-06-04T02:09:44.214Z,0.00
2018-06-04T02:10:44.239Z,0.00
2018-06-04T02:11:44.253Z,0.00
2018-06-04T02:12:44.279Z,0.00
2018-06-04T02:13:44.305Z,0.00
2018-06-04T02:14:44.331Z,0.00
2018-06-04T02:15:44.344Z,0.00
2018-06-04T02:16:44.370Z,0.00
2018-06-04T02:17:44.395Z,0.00
2018-06-04T02:18:44.410Z,0.00
2018-06-04T02:19:44.436Z,0.00
2018-06-04T02:20:44.463Z,0.00
2018-06-04T02:21:44.475Z,0.00
2018-06-04T02:22:44.501Z,0.00
2018-06-04T02:23:44.526Z,0.00
2018-06-04T02:24:44.553Z,0.00
2018-06-04T02:25:44.567Z,0.00
2018-06-04T02:26:44.592Z,0.00
2018-06-04T02:27:44.619Z,0.00
2018-06-04T02:28:44.633Z,0.00
2018-06-04T02:29:44.657Z,0.00
2018-06-04T02:30:44.683Z,0.00
2018-06-04T02:31:44.698Z,0.00
2018-06-04T02:32:44.724Z,0.00
2018-06-04T02:33:44.749Z,0.00
2018-06-04T02:34:44.763Z,0.00
2018-06-04T02:35:44.789Z,5.63
2018-06-04T02:36:44.815Z,5.63
2018-06-04T02:37:44.828Z,5.63
2018-06-04T02:38:44.854Z,5.63
2018-06-04T02:39:44.880Z,5.63
2018-06-04T02:40:44.894Z,5.63
2018-06-04T02:41:44.918Z,5.63
2018-06-04T02:42:44.945Z,5.63
2018-06-04T02:43:44.971Z,5.63
2018-06-04T02:44:44.986Z,11.25
2018-06-04T02:45:45.011Z,11.25
2018-06-04T02:46:45.036Z,11.25
2018-06-04T02:47:45.051Z,11.25
2018-06-04T02:48:45.075Z,11.25
2018-06-04T02:49:45.149Z,11.25
2018-06-04T02:50:45.117Z,11.25
2018-06-04T02:51:45.142Z,16.88
2018-06-04T02:52:45.168Z,16.88
2018-06-04T02:53:45.180Z,16.88
2018-06-04T02:54:45.210Z,16.88
2018-06-04T02:55:45.232Z,16.88
2018-06-04T02:56:45.246Z,22.50
2018-06-04T02:57:45.273Z,22.50
2018-06-04T02:58:45.298Z,22.50
2018-06-04T02:59:45.311Z,22.50
2018-06-04T03:00:45.337Z,28.13
2018-06-04T03:01:45.363Z,28.13
2018-06-04T03:02:45.377Z,28.13
2018-06-04T03:03:45.403Z,33.75
2018-06-04T03:04:45.430Z,33.75
2018-06-04T03:05:45.454Z,33.75
2018-06-04T03:06:45.467Z,33.75
2018-06-04T03:07:45.493Z,39.38
2018-06-04T03:08:45.518Z,39.38
2018-06-04T03:09:45.534Z,39.38
2018-06-04T03:10:45.559Z,45.00
2018-06-04T03:11:45.584Z,45.00
2018-06-04T03:12:45.605Z,45.00
2018-06-04T03:13:45.624Z,50.63
2018-06-04T03:14:45.653Z,50.63
2018-06-04T03:15:45.665Z,56.25
2018-06-04T03:16:45.689Z,56.25
2018-06-04T03:17:45.716Z,56.25
2018-06-04T03:18:45.727Z,61.88
2018-06-04T03:19:45.753Z,61.88
2018-06-04T03:20:45.779Z,61.88
2018-06-04T03:21:45.802Z,67.50
2018-06-04T03:22:45.820Z,67.50
2018-06-04T03:23:45.847Z,73.13
2018-06-04T03:24:45.859Z,73.13
2018-06-04T03:25:45.887Z,78.75
2018-06-04T03:26:45.911Z,78.75
2018-06-04T03:27:45.935Z,78.75
2018-06-04T03:28:45.952Z,84.38
2018-06-04T03:29:45.976Z,84.38
2018-06-04T03:30:46.007Z,90.00
2018-06-04T03:31:46.017Z,90.00
2018-06-04T03:32:46.042Z,95.63
2018-06-04T03:33:46.066Z,95.63
2018-06-04T03:34:46.090Z,101.25
2018-06-04T03:35:46.107Z,101.25
2018-06-04T03:36:46.134Z,106.88
2018-06-04T03:37:46.145Z,106.88
2018-06-04T03:38:46.171Z,112.50
2018-06-04T03:39:46.197Z,112.50
2018-06-04T03:40:46.211Z,112.50
2018-06-04T03:41:46.237Z,118.13
2018-06-04T03:42:46.262Z,118.13
2018-06-04T03:43:46.276Z,123.75
2018-06-04T03:44:46.302Z,123.75
2018-06-04T03:45:46.328Z,129.38
2018-06-04T03:46:46.354Z,135.00
2018-06-04T03:47:46.368Z,135.00
2018-06-04T03:48:46.393Z,140.63
2018-06-04T03:49:46.419Z,140.63
2018-06-04T03:50:46.432Z,140.63
2018-06-04T03:51:46.458Z,140.63
2018-06-04T03:52:46.484Z,146.25
2018-06-04T03:53:46.499Z,146.25
2018-06-04T03:54:46.527Z,146.25
2018-06-04T03:55:46.550Z,151.88
2018-06-04T03:56:46.576Z,151.88
2018-06-04T03:57:46.588Z,157.50
2018-06-04T03:58:46.614Z,157.50
2018-06-04T03:59:46.640Z,163.13
2018-06-04T04:00:46.655Z,163.13
2018-06-04T04:01:46.738Z,168.75
2018-06-04T04:02:46.706Z,168.75
2018-06-04T04:03:46.719Z,174.38
2018-06-04T04:04:46.745Z,174.38
2018-06-04T04:05:46.772Z,180.00
2018-06-04T04:06:46.797Z,185.63
2018-06-04T04:07:46.811Z,185.63
2018-06-04T04:08:46.836Z,191.25
2018-06-04T04:09:46.863Z,191.25
2018-06-04T04:10:46.877Z,196.88
2018-06-04T04:11:46.902Z,196.88
2018-06-04T04:12:46.927Z,202.50
2018-06-04T04:13:46.953Z,202.50
2018-06-04T04:14:46.967Z,202.50
2018-06-04T04:15:46.993Z,208.13
2018-06-04T04:16:47.021Z,208.13
2018-06-04T04:17:47.045Z,213.75
2018-06-04T04:18:47.057Z,219.38
2018-06-04T04:19:47.083Z,219.38
2018-06-04T04:20:47.110Z,225.00
2018-06-04T04:21:47.123Z,230.63
2018-06-04T04:22:47.149Z,230.63
2018-06-04T04:23:47.176Z,236.25
2018-06-04T04:24:47.202Z,236.25
2018-06-04T04:25:47.227Z,241.88
2018-06-04T04:26:47.241Z,241.88
2018-06-04T04:27:47.311Z,247.50
2018-06-04T04:28:47.294Z,253.13
2018-06-04T04:29:47.307Z,253.13
2018-06-04T04:30:47.332Z,258.75
2018-06-04T04:31:47.359Z,264.38
2018-06-04T04:32:47.385Z,264.38
2018-06-04T04:33:47.397Z,270.00
2018-06-04T04:34:47.424Z,275.63
2018-06-04T04:35:47.449Z,275.63
2018-06-04T04:36:47.475Z,281.25
2018-06-04T04:37:47.500Z,281.25
2018-06-04T04:38:47.516Z,286.88
2018-06-04T04:39:47.544Z,292.50
2018-06-04T04:40:47.566Z,292.50
2018-06-04T04:41:47.581Z,292.50
2018-06-04T04:42:47.605Z,298.13
2018-06-04T04:43:47.631Z,298.13
2018-06-04T04:44:47.658Z,303.75
2018-06-04T04:45:47.671Z,309.38
2018-06-04T04:46:47.701Z,315.00
2018-06-04T04:47:47.724Z,315.00
2018-06-04T04:48:47.750Z,320.63
2018-06-04T04:49:47.776Z,326.25
2018-06-04T04:50:47.788Z,326.25
2018-06-04T04:51:47.818Z,331.88
2018-06-04T04:52:47.840Z,331.88
2018-06-04T04:53:47.866Z,337.50
2018-06-04T04:54:47.880Z,337.50
2018-06-04T04:55:47.906Z,343.13
2018-06-04T04:56:47.932Z,354.38
2018-06-04T04:57:47.958Z,354.38
2018-06-04T04:58:47.987Z,360.00
2018-06-04T04:59:47.996Z,365.63
2018-06-04T05:00:48.022Z,365.63
2018-06-04T05:01:48.050Z,371.25
2018-06-04T05:02:48.075Z,376.88
2018-06-04T05:03:48.100Z,376.88
2018-06-04T05:04:48.115Z,382.50
2018-06-04T05:05:48.140Z,382.50
2018-06-04T05:06:48.171Z,382.50
2018-06-04T05:07:48.196Z,388.13
2018-06-04T05:08:48.218Z,393.75
2018-06-04T05:09:48.232Z,405.00
2018-06-04T05:10:48.261Z,416.25
2018-06-04T05:11:48.285Z,416.25
2018-06-04T05:12:48.308Z,416.25
2018-06-04T05:13:48.335Z,421.88
2018-06-04T05:14:48.361Z,427.50
2018-06-04T05:15:48.381Z,438.75
2018-06-04T05:16:48.400Z,466.88
2018-06-04T05:17:48.430Z,472.50
2018-06-04T05:18:48.457Z,461.25
2018-06-04T05:19:48.478Z,455.63
2018-06-04T05:20:48.505Z,500.63
2018-06-04T05:21:48.532Z,630.00
2018-06-04T05:22:48.542Z,742.50
2018-06-04T05:23:48.581Z,815.63
2018-06-04T05:24:48.597Z,832.50
2018-06-04T05:25:48.622Z,742.50
2018-06-04T05:26:48.648Z,607.50
2018-06-04T05:27:48.673Z,573.75
2018-06-04T05:28:48.699Z,562.50
2018-06-04T05:29:48.738Z,585.00
2018-06-04T05:30:48.739Z,562.50
2018-06-04T05:31:48.800Z,523.13
2018-06-04T05:32:48.791Z,511.88
2018-06-04T05:33:48.818Z,517.50
2018-06-04T05:34:48.846Z,517.50
2018-06-04T05:35:48.869Z,534.38
2018-06-04T05:36:48.896Z,528.75
2018-06-04T05:37:48.927Z,511.88
2018-06-04T05:38:48.946Z,506.25
2018-06-04T05:39:48.972Z,506.25
2018-06-04T05:40:48.998Z,511.88
2018-06-04T05:41:49.031Z,540.00
2018-06-04T05:42:49.049Z,545.63
2018-06-04T05:43:49.081Z,545.63
2018-06-04T05:44:49.101Z,590.63
2018-06-04T05:45:49.129Z,590.63
2018-06-04T05:46:49.157Z,562.50
2018-06-04T05:47:49.180Z,551.25
2018-06-04T05:48:49.209Z,562.50
2018-06-04T05:49:49.232Z,579.38
2018-06-04T05:50:49.244Z,579.38
2018-06-04T05:51:49.270Z,590.63
2018-06-04T05:52:49.300Z,579.38
2018-06-04T05:53:49.362Z,573.75
2018-06-04T05:54:49.349Z,585.00
2018-06-04T05:55:49.374Z,607.50
2018-06-04T05:56:49.399Z,613.13
2018-06-04T05:57:49.426Z,585.00
2018-06-04T05:58:49.453Z,585.00
2018-06-04T05:59:49.478Z,585.00
2018-06-04T06:00:49.505Z,590.63
2018-06-04T06:01:49.536Z,624.38
2018-06-04T06:02:49.555Z,675.00
2018-06-04T06:03:49.582Z,658.13
2018-06-04T06:04:49.609Z,618.75
2018-06-04T06:05:49.635Z,635.63
2018-06-04T06:06:49.659Z,652.50
2018-06-04T06:07:49.686Z,675.00
2018-06-04T06:08:49.711Z,697.50
2018-06-04T06:09:49.737Z,832.50
2018-06-04T06:10:49.764Z,871.88
2018-06-04T06:11:49.789Z,776.25
2018-06-04T06:12:49.814Z,714.38
2018-06-04T06:13:49.841Z,776.25
2018-06-04T06:14:49.866Z,900.00
2018-06-04T06:15:49.892Z,990.00
2018-06-04T06:16:49.921Z,1130.63
2018-06-04T06:17:49.944Z,1198.13
2018-06-04T06:18:49.970Z,1485.00
2018-06-04T06:19:50.007Z,1552.50
2018-06-04T06:20:50.035Z,1597.50
2018-06-04T06:21:50.049Z,1710.00
2018-06-04T06:22:50.074Z,1715.63
2018-06-04T06:23:50.104Z,1698.75
2018-06-04T06:24:50.125Z,1693.13
2018-06-04T06:25:50.152Z,1136.25
2018-06-04T06:26:50.191Z,1158.75
2018-06-04T06:27:50.223Z,1029.38
2018-06-04T06:28:50.242Z,1023.75
2018-06-04T06:29:50.269Z,1113.75
2018-06-04T06:30:50.352Z,1046.25
2018-06-04T06:31:50.321Z,1096.88
2018-06-04T06:32:50.351Z,1046.25
2018-06-04T06:33:50.384Z,1243.13
2018-06-04T06:34:50.411Z,1485.00
2018-06-04T06:35:50.439Z,1721.25
2018-06-04T06:36:50.462Z,1816.88
2018-06-04T06:37:50.488Z,1906.88
2018-06-04T06:38:50.527Z,1884.38
2018-06-04T06:39:50.556Z,1884.38
2018-06-04T06:40:50.583Z,1873.13
2018-06-04T06:41:50.611Z,1856.25
2018-06-04T06:42:50.646Z,1856.25
2018-06-04T06:43:50.669Z,1861.88
2018-06-04T06:44:50.701Z,1918.13
2018-06-04T06:45:50.722Z,1940.63
2018-06-04T06:46:50.860Z,1968.75
2018-06-04T06:47:50.785Z,1940.63
2018-06-04T06:48:50.813Z,1968.75
2018-06-04T06:49:50.850Z,1996.88
2018-06-04T06:50:50.875Z,1968.75
2018-06-04T06:51:50.917Z,1991.25
2018-06-04T06:52:50.943Z,2008.13
2018-06-04T06:53:50.966Z,2030.63
2018-06-04T06:54:51.003Z,2064.38
2018-06-04T06:55:51.029Z,2053.13
2018-06-04T06:56:51.069Z,2041.88
2018-06-04T06:57:51.096Z,2109.38
2018-06-04T06:58:51.133Z,2036.25
2018-06-04T06:59:51.508Z,2103.75
2018-06-04T07:00:51.198Z,2160.00
2018-06-04T07:01:51.272Z,2092.50
2018-06-04T07:02:51.264Z,2143.13
2018-06-04T07:03:51.299Z,2165.63
2018-06-04T07:04:51.326Z,2171.25
2018-06-04T07:05:51.372Z,2221.88
2018-06-04T07:06:51.390Z,2233.13
2018-06-04T07:07:51.436Z,2199.38
2018-06-04T07:08:51.455Z,2199.38
2018-06-04T07:09:51.493Z,2300.63
2018-06-04T07:10:51.520Z,2266.88
2018-06-04T07:11:51.561Z,2244.38
2018-06-04T07:12:51.600Z,2250.00
2018-06-04T07:13:51.621Z,2272.50
2018-06-04T07:14:51.660Z,2278.13
2018-06-04T07:15:51.701Z,2300.63
2018-06-04T07:16:51.724Z,2368.13
2018-06-04T07:17:51.764Z,2373.75
2018-06-04T07:18:51.800Z,2300.63
2018-06-04T07:19:51.827Z,2430.00
2018-06-04T07:20:51.865Z,2463.75
2018-06-04T07:21:51.904Z,2475.00
2018-06-04T07:22:51.929Z,2491.88
2018-06-04T07:23:51.969Z,2536.88
2018-06-04T07:24:52.007Z,2559.38
2018-06-04T07:25:52.045Z,2424.38
2018-06-04T07:26:52.092Z,2430.00
2018-06-04T07:27:52.109Z,2418.75
2018-06-04T07:28:52.149Z,2362.50
2018-06-04T07:29:52.174Z,2368.13
2018-06-04T07:30:52.212Z,2334.38
2018-06-04T07:31:52.251Z,2289.38
2018-06-04T07:32:52.290Z,2368.13
2018-06-04T07:33:52.316Z,2401.88
2018-06-04T07:34:52.360Z,2334.38
2018-06-04T07:35:52.393Z,2396.25
2018-06-04T07:36:52.431Z,2536.88
2018-06-04T07:37:52.469Z,2598.75
2018-06-04T07:38:52.494Z,2750.63
2018-06-04T07:39:52.533Z,2812.50
2018-06-04T07:40:52.572Z,2840.63
2018-06-04T07:41:52.612Z,2767.50
2018-06-04T07:42:52.647Z,2767.50
2018-06-04T07:43:52.674Z,1192.50
2018-06-04T07:44:52.714Z,2891.25
2018-06-04T07:45:52.751Z,2761.88
2018-06-04T07:46:52.791Z,2705.63
2018-06-04T07:47:52.828Z,1209.38
2018-06-04T07:48:52.867Z,2694.38
2018-06-04T07:49:52.920Z,2728.13
2018-06-04T07:50:52.931Z,2671.88
2018-06-04T07:51:52.971Z,2818.13
2018-06-04T07:52:53.010Z,2806.88
2018-06-04T07:53:53.047Z,2818.13
2018-06-04T07:54:53.072Z,2863.13
2018-06-04T07:55:53.124Z,2823.75
2018-06-04T07:56:53.190Z,2790.00
2018-06-04T07:57:53.188Z,2778.75
2018-06-04T07:58:53.226Z,2885.63
2018-06-04T07:59:53.265Z,2913.75
2018-06-04T08:00:53.307Z,2908.13
2018-06-04T08:01:53.329Z,2863.13
2018-06-04T08:02:53.368Z,2986.88
2018-06-04T08:03:53.418Z,3116.25
2018-06-04T08:04:53.444Z,3076.88
2018-06-04T08:05:53.483Z,3088.13
2018-06-04T08:06:53.521Z,3065.63
2018-06-04T08:07:53.560Z,2958.75
2018-06-04T08:08:53.611Z,3026.25
2018-06-04T08:09:53.642Z,3144.38
2018-06-04T08:10:53.674Z,3121.88
2018-06-04T08:11:53.713Z,3206.25
2018-06-04T08:12:53.752Z,3251.25
2018-06-04T08:13:53.791Z,3183.75
2018-06-04T08:14:53.828Z,2975.63
2018-06-04T08:15:53.868Z,3031.88
2018-06-04T08:16:53.905Z,3099.38
2018-06-04T08:17:53.946Z,3121.88
2018-06-04T08:18:53.971Z,3093.75
2018-06-04T08:19:54.012Z,3206.25
2018-06-04T08:20:54.048Z,3307.50
2018-06-04T08:21:54.085Z,2716.88
2018-06-04T08:22:54.125Z,1209.38
2018-06-04T08:23:54.218Z,3245.63
2018-06-04T08:24:54.201Z,3403.13
2018-06-04T08:25:54.239Z,3144.38
2018-06-04T08:26:54.278Z,3144.38
2018-06-04T08:27:54.316Z,1372.50
2018-06-04T08:28:54.354Z,3594.38
2018-06-04T08:29:54.396Z,3521.25
2018-06-04T08:30:54.633Z,3403.13
2018-06-04T08:31:54.470Z,3363.75
2018-06-04T08:32:54.509Z,3504.38
2018-06-04T08:33:54.546Z,3442.50
2018-06-04T08:34:54.585Z,3335.63
2018-06-04T08:35:54.623Z,3465.00
2018-06-04T08:36:54.668Z,3358.13
2018-06-04T08:37:54.701Z,3498.75
2018-06-04T08:38:54.739Z,3819.38
2018-06-04T08:39:54.777Z,3656.25
2018-06-04T08:40:54.828Z,1383.75
2018-06-04T08:41:54.869Z,1119.38
2018-06-04T08:42:54.904Z,933.75
2018-06-04T08:43:54.944Z,933.75
2018-06-04T08:44:54.981Z,2986.88
2018-06-04T08:45:55.083Z,3436.88
2018-06-04T08:46:55.059Z,3684.38
2018-06-04T08:47:55.098Z,3521.25
2018-06-04T08:48:55.135Z,3588.75
2018-06-04T08:49:55.175Z,3667.50
2018-06-04T08:50:55.227Z,3813.75
2018-06-04T08:51:55.252Z,3808.13
2018-06-04T08:52:55.290Z,3780.00
2018-06-04T08:53:55.328Z,3774.38
2018-06-04T08:54:55.366Z,1254.38
2018-06-04T08:55:55.405Z,1012.50
2018-06-04T08:56:55.443Z,916.88
2018-06-04T08:57:55.481Z,883.13
2018-06-04T08:58:55.732Z,843.75
2018-06-04T08:59:55.559Z,748.13
2018-06-04T09:00:55.609Z,646.88
2018-06-04T09:01:55.636Z,607.50
2018-06-04T09:02:55.673Z,646.88
2018-06-04T09:03:55.700Z,770.63
2018-06-04T09:04:55.742Z,1040.63
2018-06-04T09:05:55.775Z,3920.63
2018-06-04T09:06:55.815Z,3881.25
2018-06-04T09:07:55.865Z,3830.63
2018-06-04T09:08:55.880Z,1395.00
2018-06-04T09:09:55.991Z,1226.25
2018-06-04T09:10:55.956Z,1878.75
2018-06-04T09:11:55.994Z,1485.00
2018-06-04T09:12:56.031Z,1428.75
2018-06-04T09:13:56.070Z,1935.00
2018-06-04T09:14:56.097Z,4061.25
2018-06-04T09:15:56.136Z,1389.38
2018-06-04T09:16:56.180Z,1231.88
2018-06-04T09:17:56.212Z,1170.00
2018-06-04T09:18:56.251Z,1141.88
2018-06-04T09:19:56.277Z,1102.50
2018-06-04T09:20:56.316Z,1057.50
2018-06-04T09:21:56.354Z,1350.00
2018-06-04T09:22:56.391Z,3695.63
2018-06-04T09:23:56.419Z,3240.00
2018-06-04T09:24:56.456Z,3858.75
2018-06-04T09:25:56.495Z,4162.50
2018-06-04T09:26:56.534Z,4275.00
2018-06-04T09:27:56.571Z,4291.88
2018-06-04T09:28:56.596Z,4117.50
2018-06-04T09:29:56.635Z,1963.13
2018-06-04T09:30:56.677Z,4336.88
2018-06-04T09:31:56.713Z,4173.75
2018-06-04T09:32:56.752Z,3948.75
2018-06-04T09:33:56.789Z,1614.38
2018-06-04T09:34:56.828Z,1873.13
2018-06-04T09:35:56.870Z,4050.00
2018-06-04T09:36:56.904Z,3870.00
2018-06-04T09:37:56.944Z,3661.88
2018-06-04T09:38:56.982Z,4100.63
2018-06-04T09:39:57.078Z,4185.00
2018-06-04T09:40:57.062Z,4286.25
2018-06-04T09:41:57.097Z,4359.38
2018-06-04T09:42:57.145Z,4438.13
2018-06-04T09:43:57.175Z,1755.00
2018-06-04T09:44:57.212Z,855.00
2018-06-04T09:45:57.252Z,883.13
2018-06-04T09:46:57.292Z,860.63
2018-06-04T09:47:57.328Z,933.75
2018-06-04T09:48:57.368Z,1164.38
2018-06-04T09:49:57.416Z,3791.25
2018-06-04T09:50:57.442Z,4657.50
2018-06-04T09:51:57.482Z,2109.38
2018-06-04T09:52:57.519Z,4848.75
2018-06-04T09:53:57.595Z,4860.00
2018-06-04T09:54:57.597Z,4702.50
2018-06-04T09:55:57.639Z,4702.50
2018-06-04T09:56:57.674Z,2964.38
2018-06-04T09:57:57.726Z,1248.75
2018-06-04T09:58:57.763Z,1006.88
2018-06-04T09:59:57.801Z,1113.75
2018-06-04T10:00:57.841Z,1125.00
2018-06-04T10:01:57.878Z,1125.00
2018-06-04T10:02:57.917Z,1243.13
2018-06-04T10:03:57.955Z,1411.88
2018-06-04T10:04:57.994Z,2064.38
2018-06-04T10:05:58.032Z,2902.50
2018-06-04T10:06:58.070Z,4055.63
2018-06-04T10:07:58.108Z,3127.50
2018-06-04T10:08:58.134Z,2165.63
2018-06-04T10:09:58.173Z,5169.38
2018-06-04T10:10:58.211Z,3127.50
2018-06-04T10:11:58.250Z,2970.00
2018-06-04T10:12:58.288Z,3470.63
2018-06-04T10:13:58.327Z,3926.25
2018-06-04T10:14:58.365Z,2801.25
2018-06-04T10:15:58.416Z,2919.38
2018-06-04T10:16:58.442Z,2193.75
2018-06-04T10:17:58.481Z,2199.38
2018-06-04T10:18:58.518Z,2008.13
2018-06-04T10:19:58.557Z,1884.38
2018-06-04T10:20:58.596Z,2030.63
2018-06-04T10:21:58.635Z,2784.38
2018-06-04T10:22:58.685Z,2649.38
2018-06-04T10:23:58.712Z,4691.25
2018-06-04T10:24:58.749Z,2840.63
2018-06-04T10:25:58.788Z,3757.50
2018-06-04T10:26:58.838Z,5366.25
2018-06-04T10:27:58.936Z,5130.00
2018-06-04T10:28:58.902Z,3144.38
2018-06-04T10:29:58.941Z,2323.13
2018-06-04T10:30:58.980Z,2216.25
2018-06-04T10:31:59.019Z,2379.38
2018-06-04T10:32:59.056Z,2160.00
2018-06-04T10:33:59.096Z,1580.63
2018-06-04T10:34:59.134Z,1490.63
2018-06-04T10:35:59.174Z,1383.75
2018-06-04T10:36:59.210Z,1946.25
2018-06-04T10:37:59.260Z,3650.63
2018-06-04T10:38:59.288Z,3954.38
2018-06-04T10:39:59.327Z,4314.38
2018-06-04T10:40:59.366Z,4449.38
2018-06-04T10:41:59.428Z,4539.38
2018-06-04T10:42:59.442Z,4843.13
2018-06-04T10:43:59.491Z,4876.88
2018-06-04T10:44:59.530Z,4224.38
2018-06-04T10:45:59.608Z,4663.13
2018-06-04T10:46:59.614Z,3751.88
2018-06-04T10:48:59.687Z,2238.75
2018-06-04T10:49:59.736Z,1147.50
2018-06-04T10:50:59.761Z,1125.00
2018-06-04T10:51:59.820Z,1029.38
2018-06-04T10:52:59.850Z,1080.00
2018-06-04T10:53:59.889Z,1991.25
2018-06-04T10:54:59.926Z,3228.75
2018-06-04T10:55:59.967Z,1344.38
2018-06-04T10:57:00.016Z,1524.38
2018-06-04T10:58:00.042Z,1659.38
2018-06-04T10:59:00.080Z,2137.50
2018-06-04T11:00:00.119Z,4179.38
2018-06-04T11:01:00.157Z,3498.75
2018-06-04T11:02:00.196Z,3144.38
2018-06-04T11:03:00.233Z,2936.25
2018-06-04T11:04:00.273Z,1912.50
2018-06-04T11:05:00.343Z,1878.75
2018-06-04T11:06:00.353Z,2148.75
2018-06-04T11:07:00.387Z,4185.00
2018-06-04T11:08:00.427Z,2002.50
2018-06-04T11:09:00.465Z,2469.38
2018-06-04T11:10:00.504Z,2137.50
2018-06-04T11:11:00.542Z,2508.75
2018-06-04T11:12:00.580Z,2013.75
2018-06-04T11:13:00.619Z,2570.63
2018-06-04T11:14:00.657Z,2396.25
2018-06-04T11:15:00.694Z,1749.38
2018-06-04T11:16:00.734Z,1721.25
2018-06-04T11:17:00.772Z,1777.50
2018-06-04T11:18:00.811Z,1861.88
2018-06-04T11:19:00.842Z,1991.25
2018-06-04T11:20:00.877Z,2120.63
2018-06-04T11:21:00.914Z,2199.38
2018-06-04T11:22:00.952Z,2064.38
2018-06-04T11:23:00.991Z,2205.00
2018-06-04T11:24:01.029Z,2385.00
2018-06-04T11:25:01.072Z,3054.38
2018-06-04T11:26:01.156Z,3628.13
2018-06-04T11:27:01.145Z,3245.63
2018-06-04T11:28:01.184Z,2238.75
2018-06-04T11:29:01.225Z,1906.88
2018-06-04T11:30:01.248Z,1906.88
2018-06-04T11:31:01.285Z,2075.63
2018-06-04T11:32:01.325Z,2289.38
2018-06-04T11:33:01.362Z,2323.13
2018-06-04T11:34:01.401Z,2373.75
2018-06-04T11:35:01.441Z,2407.50
2018-06-04T11:36:01.478Z,1991.25
2018-06-04T11:37:01.516Z,2508.75
2018-06-04T11:38:01.555Z,3600.00
2018-06-04T11:39:01.581Z,3780.00
2018-06-04T11:40:01.618Z,3515.63
2018-06-04T11:41:01.659Z,3369.38
2018-06-04T11:42:01.708Z,1985.63
2018-06-04T11:43:01.735Z,3341.25
2018-06-04T11:44:01.773Z,2863.13
2018-06-04T11:45:01.822Z,2396.25
2018-06-04T11:46:01.855Z,3105.00
2018-06-04T11:47:01.894Z,3009.38
2018-06-04T11:48:01.929Z,2936.25
2018-06-04T11:49:01.966Z,2801.25
2018-06-04T11:50:02.006Z,2587.50
2018-06-04T11:51:02.042Z,2570.63
2018-06-04T11:52:02.080Z,1569.38
2018-06-04T11:53:02.131Z,1524.38
2018-06-04T11:54:02.174Z,2981.25
2018-06-04T11:55:02.208Z,2823.75
2018-06-04T11:56:02.246Z,2784.38
2018-06-04T11:57:02.284Z,3048.75
2018-06-04T11:58:02.323Z,3110.63
2018-06-04T11:59:02.362Z,3470.63
2018-06-04T12:00:02.403Z,2165.63
2018-06-04T12:01:02.455Z,2553.75
2018-06-04T12:02:02.491Z,5107.50
2018-06-04T12:03:02.528Z,4978.13
2018-06-04T12:04:02.566Z,5422.50
2018-06-04T12:05:02.609Z,5450.63
2018-06-04T12:06:02.644Z,5180.63
2018-06-04T12:07:02.696Z,4297.50
2018-06-04T12:08:02.734Z,2216.25
2018-06-04T12:09:02.783Z,2131.88
2018-06-04T12:10:02.810Z,3228.75
2018-06-04T12:11:02.848Z,2306.25
2018-06-04T12:12:02.899Z,1648.13
2018-06-04T12:13:02.942Z,3813.75
2018-06-04T12:14:02.974Z,3459.38
2018-06-04T12:15:03.014Z,3802.50
2018-06-04T12:16:03.064Z,3886.88
2018-06-04T12:17:03.116Z,4792.50
2018-06-04T12:18:03.141Z,6131.25
2018-06-04T12:19:03.181Z,6541.88
2018-06-04T12:20:03.218Z,6390.00
2018-06-04T12:21:03.273Z,6446.25
2018-06-04T12:22:03.306Z,5506.88
2018-06-04T12:23:03.346Z,4843.13
2018-06-04T12:24:03.400Z,4376.25
2018-06-04T12:25:03.436Z,4252.50
2018-06-04T12:26:03.474Z,4140.00
2018-06-04T12:27:03.512Z,4095.00
2018-06-04T12:28:03.563Z,4224.38
2018-06-04T12:29:03.602Z,4297.50
2018-06-04T12:30:03.653Z,4027.50
2018-06-04T12:31:03.704Z,1321.88